createdAt,value
2019-05-21T00:00:47.556Z,20.53
2019-05-21T00:03:16.336Z,22.40
2019-05-21T00:05:45.074Z,20.53
2019-05-21T00:08:33.013Z,20.77
2019-05-21T00:11:01.745Z,22.20
2019-05-21T00:13:31.973Z,22.13
2019-05-21T00:16:00.676Z,23.90
2019-05-21T00:18:29.381Z,20.63
2019-05-21T00:20:58.020Z,25.17
2019-05-21T00:23:26.710Z,21.03
2019-05-21T00:25:55.443Z,20.53
2019-05-21T00:28:35.900Z,21.27
2019-05-21T00:31:42.777Z,23.93
2019-05-21T00:34:48.334Z,18.67
2019-05-21T00:37:53.126Z,20.50
2019-05-21T00:40:58.246Z,21.80
2019-05-21T00:43:42.145Z,19.73
2019-05-21T00:46:12.254Z,19.33
2019-05-21T00:48:40.878Z,20.47
2019-05-21T00:51:28.860Z,25.13
2019-05-21T00:53:57.552Z,24.13
2019-05-21T00:56:26.197Z,19.70
2019-05-21T00:59:15.665Z,20.17
2019-05-21T01:01:44.608Z,21.30
2019-05-21T01:04:14.833Z,20.67
2019-05-21T01:06:45.010Z,19.67
2019-05-21T01:09:13.697Z,20.57
2019-05-21T01:11:42.405Z,22.63
2019-05-21T01:14:11.154Z,23.23
2019-05-21T01:16:39.791Z,18.40
2019-05-21T01:19:08.537Z,20.77
2019-05-21T01:21:37.241Z,19.30
2019-05-21T01:24:06.203Z,19.73
2019-05-21T01:26:34.768Z,20.77
2019-05-21T01:29:24.240Z,20.33
2019-05-21T01:31:52.809Z,19.90
2019-05-21T01:34:21.676Z,22.37
2019-05-21T01:36:50.355Z,23.33
2019-05-21T01:39:38.343Z,20.20
2019-05-21T01:42:06.976Z,19.37
2019-05-21T01:44:37.309Z,20.17
2019-05-21T01:47:05.938Z,19.03
2019-05-21T01:49:34.557Z,21.53
2019-05-21T01:52:04.657Z,18.33
2019-05-21T01:54:34.840Z,19.23
2019-05-21T01:57:03.744Z,20.80
2019-05-21T01:59:32.391Z,19.00
2019-05-21T02:02:01.068Z,20.90
2019-05-21T02:04:30.092Z,18.67
2019-05-21T02:06:58.783Z,17.07
2019-05-21T02:09:27.420Z,21.77
2019-05-21T02:11:56.118Z,18.37
2019-05-21T02:14:44.090Z,18.47
2019-05-21T02:17:12.710Z,17.10
2019-05-21T02:19:41.341Z,19.23
2019-05-21T02:22:10.025Z,17.97
2019-05-21T02:24:38.657Z,17.03
2019-05-21T02:27:07.413Z,18.23
2019-05-21T02:29:36.025Z,17.40
2019-05-21T02:32:04.638Z,19.60
2019-05-21T02:34:33.205Z,16.67
2019-05-21T02:37:05.855Z,14.97
2019-05-21T02:39:32.185Z,17.80
2019-05-21T02:42:00.936Z,16.43
2019-05-21T02:44:29.570Z,16.40
2019-05-21T02:46:58.193Z,18.90
2019-05-21T02:49:26.893Z,16.60
2019-05-21T02:51:55.733Z,13.90
2019-05-21T02:54:39.345Z,15.40
2019-05-21T02:56:54.716Z,15.93
2019-05-21T02:59:24.890Z,15.07
2019-05-21T03:01:55.287Z,13.67
2019-05-21T03:04:24.016Z,16.00
2019-05-21T03:06:54.415Z,15.00
2019-05-21T03:09:42.386Z,17.53
2019-05-21T03:12:11.065Z,14.80
2019-05-21T03:14:39.696Z,16.13
2019-05-21T03:17:08.458Z,14.77
2019-05-21T03:19:37.094Z,14.43
2019-05-21T03:22:05.975Z,19.47
2019-05-21T03:24:34.683Z,15.10
2019-05-21T03:27:03.441Z,16.90
2019-05-21T03:29:32.137Z,13.00
2019-05-21T03:32:00.890Z,15.30
2019-05-21T03:34:48.867Z,22.57
2019-05-21T03:37:17.469Z,16.07
2019-05-21T03:39:46.044Z,16.30
2019-05-21T03:42:14.797Z,17.17
2019-05-21T03:45:07.286Z,16.93
2019-05-21T03:47:33.209Z,21.47
2019-05-21T03:50:01.934Z,14.80
2019-05-21T03:52:30.693Z,15.67
2019-05-21T03:55:02.859Z,19.13
2019-05-21T03:57:29.681Z,14.60
2019-05-21T03:59:58.435Z,14.03
2019-05-21T04:02:27.074Z,13.17
2019-05-21T04:04:56.025Z,15.70
2019-05-21T04:07:24.658Z,13.47
2019-05-21T04:09:53.275Z,15.53
2019-05-21T04:12:21.840Z,12.90
2019-05-21T04:14:52.265Z,14.67
2019-05-21T04:17:26.708Z,11.60
2019-05-21T04:19:55.397Z,15.47
2019-05-21T04:22:24.035Z,14.83
2019-05-21T04:24:52.646Z,14.27
2019-05-21T04:27:21.278Z,13.83
2019-05-21T04:29:49.959Z,14.80
2019-05-21T04:32:18.593Z,11.97
2019-05-21T04:34:47.209Z,13.77
2019-05-21T04:37:17.436Z,13.13
2019-05-21T04:39:46.160Z,14.87
2019-05-21T04:42:38.000Z,16.13
2019-05-21T04:45:08.672Z,16.57
2019-05-21T04:47:38.854Z,15.47
2019-05-21T04:50:07.796Z,13.70
2019-05-21T04:52:55.708Z,13.50
2019-05-21T04:55:25.849Z,16.90
2019-05-21T04:57:54.561Z,18.27
2019-05-21T05:00:42.600Z,15.07
2019-05-21T05:03:11.258Z,15.40
2019-05-21T05:05:39.952Z,15.03
2019-05-21T05:08:08.650Z,12.37
2019-05-21T05:10:37.401Z,14.30
2019-05-21T05:13:06.033Z,16.30
2019-05-21T05:15:34.717Z,18.30
2019-05-21T05:18:03.353Z,16.90
2019-05-21T05:20:51.388Z,18.33
2019-05-21T05:23:20.025Z,15.33
2019-05-21T05:25:48.773Z,18.73
2019-05-21T05:28:17.333Z,19.47
2019-05-21T05:31:05.367Z,15.30
2019-05-21T05:33:33.934Z,17.47
2019-05-21T05:36:02.610Z,17.50
2019-05-21T05:38:31.319Z,23.37
2019-05-21T05:40:59.946Z,21.50
2019-05-21T05:43:28.650Z,21.30
2019-05-21T05:45:57.341Z,17.87
2019-05-21T05:48:26.649Z,18.47
2019-05-21T05:50:57.011Z,19.00
2019-05-21T05:53:25.660Z,18.93
2019-05-21T05:55:54.532Z,18.13
2019-05-21T05:58:23.169Z,21.77
2019-05-21T06:00:52.780Z,20.30
2019-05-21T06:03:21.432Z,19.70
2019-05-21T06:05:54.186Z,19.97
2019-05-21T06:08:22.968Z,20.97
2019-05-21T06:10:53.060Z,20.67
2019-05-21T06:13:21.636Z,22.40
2019-05-21T06:15:54.233Z,24.90
2019-05-21T06:18:23.151Z,21.80
2019-05-21T06:20:51.940Z,19.33
2019-05-21T06:23:20.698Z,20.77
2019-05-21T06:25:49.922Z,19.17
2019-05-21T06:28:20.714Z,21.63
2019-05-21T06:30:49.290Z,17.10
2019-05-21T06:33:37.496Z,22.70
2019-05-21T06:36:10.057Z,20.90
2019-05-21T06:38:58.177Z,23.13
2019-05-21T06:41:27.022Z,21.60
2019-05-21T06:44:15.104Z,19.70
2019-05-21T06:46:44.745Z,20.33
2019-05-21T06:49:13.742Z,20.83
2019-05-21T06:51:42.384Z,23.87
2019-05-21T06:54:11.138Z,20.57
2019-05-21T06:56:39.776Z,18.37
2019-05-21T06:59:08.530Z,21.60
2019-05-21T07:01:37.241Z,19.57
2019-05-21T07:04:06.018Z,17.30
2019-05-21T07:06:54.010Z,19.30
2019-05-21T07:09:22.686Z,17.60
2019-05-21T07:11:51.323Z,17.13
2019-05-21T07:14:20.073Z,19.07
2019-05-21T07:17:10.255Z,20.00
2019-05-21T07:19:38.939Z,19.03
2019-05-21T07:22:12.758Z,19.13
2019-05-21T07:24:40.314Z,15.07
2019-05-21T07:27:09.039Z,14.17
2019-05-21T07:29:37.660Z,14.50
2019-05-21T07:32:06.369Z,17.20
2019-05-21T07:34:36.599Z,12.57
2019-05-21T07:37:05.358Z,16.00
2019-05-21T07:39:33.991Z,14.90
2019-05-21T07:42:03.321Z,10.63
2019-05-21T07:44:31.927Z,14.63
2019-05-21T07:47:00.667Z,12.17
2019-05-21T07:49:29.308Z,12.80
2019-05-21T07:51:57.954Z,11.03
2019-05-21T07:54:28.131Z,10.10
2019-05-21T07:56:57.110Z,11.67
2019-05-21T07:59:25.850Z,11.40
2019-05-21T08:01:54.499Z,10.07
2019-05-21T08:04:23.157Z,8.50
2019-05-21T08:06:54.004Z,9.33
2019-05-21T08:09:22.761Z,10.27
2019-05-21T08:11:51.510Z,10.23
2019-05-21T08:14:20.193Z,8.30
2019-05-21T08:16:50.299Z,9.67
2019-05-21T08:19:18.990Z,10.03
2019-05-21T08:21:47.702Z,7.17
2019-05-21T08:24:16.370Z,12.33
2019-05-21T08:26:45.083Z,10.53
2019-05-21T08:29:13.745Z,9.77
2019-05-21T08:31:42.452Z,8.23
2019-05-21T08:34:11.969Z,7.13
2019-05-21T08:36:40.540Z,6.13
2019-05-21T08:39:29.465Z,6.97
2019-05-21T08:42:17.466Z,7.60
2019-05-21T08:45:07.224Z,7.47
2019-05-21T08:47:37.865Z,7.47
2019-05-21T08:50:09.161Z,7.17
2019-05-21T08:52:38.060Z,5.87
2019-05-21T08:55:18.003Z,5.53
2019-05-21T08:58:06.332Z,4.50
2019-05-21T09:00:32.116Z,5.37
2019-05-21T09:03:01.095Z,6.10
2019-05-21T09:05:29.776Z,6.20
2019-05-21T09:07:59.904Z,6.13
2019-05-21T09:10:28.795Z,4.53
2019-05-21T09:12:58.988Z,7.97
2019-05-21T09:15:28.910Z,6.87
2019-05-21T09:17:59.993Z,5.27
2019-05-21T09:20:48.004Z,5.53
2019-05-21T09:23:16.723Z,4.47
2019-05-21T09:25:47.632Z,3.83
2019-05-21T09:28:15.734Z,7.17
2019-05-21T09:30:44.338Z,6.43
2019-05-21T09:33:13.498Z,4.57
2019-05-21T09:35:42.351Z,6.00
2019-05-21T09:38:11.055Z,8.17
2019-05-21T09:40:39.965Z,5.27
2019-05-21T09:43:08.634Z,4.03
2019-05-21T09:45:37.371Z,4.77
2019-05-21T09:48:06.347Z,3.90
2019-05-21T09:50:58.605Z,4.10
2019-05-21T09:53:27.117Z,5.37
2019-05-21T09:55:59.349Z,5.80
2019-05-21T09:58:32.664Z,4.77
2019-05-21T10:01:18.273Z,5.83
2019-05-21T10:03:48.616Z,5.63
2019-05-21T10:06:19.837Z,5.70
2019-05-21T10:08:58.797Z,4.97
2019-05-21T10:11:27.798Z,5.00
2019-05-21T10:14:15.769Z,3.77
2019-05-21T10:16:44.444Z,7.73
2019-05-21T10:19:13.158Z,8.27
2019-05-21T10:21:41.902Z,3.67
2019-05-21T10:24:10.632Z,3.87
2019-05-21T10:26:39.290Z,3.20
2019-05-21T10:29:08.001Z,3.83
2019-05-21T10:31:36.698Z,4.17
2019-05-21T10:34:26.861Z,3.30
2019-05-21T10:36:57.371Z,3.03
2019-05-21T10:39:26.466Z,2.90
2019-05-21T10:41:55.890Z,3.20
2019-05-21T10:44:24.819Z,4.37
2019-05-21T10:46:57.524Z,5.03
2019-05-21T10:49:26.105Z,2.60
2019-05-21T10:51:54.721Z,3.00
2019-05-21T10:54:42.716Z,2.20
2019-05-21T10:57:11.585Z,3.30
2019-05-21T10:59:40.394Z,2.37
2019-05-21T11:02:10.722Z,3.77
2019-05-21T11:04:41.033Z,4.43
2019-05-21T11:07:11.561Z,4.53
2019-05-21T11:09:42.691Z,3.57
2019-05-21T11:12:14.400Z,3.13
2019-05-21T11:14:47.112Z,3.30
2019-05-21T11:17:20.011Z,3.77
2019-05-21T11:19:48.748Z,3.63
2019-05-21T11:22:19.404Z,3.37
2019-05-21T11:24:48.844Z,4.67
2019-05-21T11:27:20.234Z,4.93
2019-05-21T11:30:10.525Z,4.10
2019-05-21T11:32:41.246Z,3.00
2019-05-21T11:35:20.421Z,4.80
2019-05-21T11:37:49.568Z,3.20
2019-05-21T11:40:22.018Z,3.83
2019-05-21T11:42:54.173Z,2.47
2019-05-21T11:45:32.185Z,2.93
2019-05-21T11:47:58.057Z,5.40
2019-05-21T11:50:26.982Z,3.87
2019-05-21T11:52:57.342Z,4.33
2019-05-21T11:55:28.265Z,5.40
2019-05-21T11:58:04.984Z,3.37
2019-05-21T12:00:55.328Z,1.90
2019-05-21T12:03:28.099Z,2.20
2019-05-21T12:05:57.184Z,2.30
2019-05-21T12:08:25.896Z,3.40
2019-05-21T12:10:54.663Z,6.00
2019-05-21T12:13:23.335Z,2.83
2019-05-21T12:15:52.078Z,2.87
2019-05-21T12:18:40.081Z,2.63
2019-05-21T12:21:09.003Z,4.40
2019-05-21T12:23:57.023Z,5.07
2019-05-21T12:26:25.729Z,3.00
2019-05-21T12:28:54.376Z,3.00
2019-05-21T12:31:23.131Z,2.97
2019-05-21T12:33:51.693Z,3.27
2019-05-21T12:36:20.387Z,3.80
2019-05-21T12:38:49.209Z,3.40
2019-05-21T12:41:19.413Z,3.10
2019-05-21T12:43:48.255Z,3.50
2019-05-21T12:46:36.331Z,3.30
2019-05-21T12:49:06.573Z,3.77
2019-05-21T12:51:38.437Z,5.83
2019-05-21T12:54:27.955Z,4.27
2019-05-21T12:56:58.217Z,4.17
2019-05-21T12:59:26.852Z,4.87
2019-05-21T13:01:55.620Z,4.37
2019-05-21T13:04:27.032Z,3.70
2019-05-21T13:06:55.897Z,4.17
2019-05-21T13:09:46.886Z,5.77
2019-05-21T13:12:17.205Z,6.83
2019-05-21T13:14:47.456Z,7.03
2019-05-21T13:17:38.067Z,5.00
2019-05-21T13:20:26.738Z,3.90
2019-05-21T13:22:55.422Z,6.13
2019-05-21T13:25:24.493Z,3.80
2019-05-21T13:28:12.524Z,5.23
2019-05-21T13:30:41.260Z,3.73
2019-05-21T13:33:11.408Z,3.73
2019-05-21T13:35:40.148Z,4.80
2019-05-21T13:38:13.154Z,3.53
2019-05-21T13:40:41.347Z,5.67
2019-05-21T13:43:10.105Z,4.13
2019-05-21T13:45:38.823Z,3.63
2019-05-21T13:48:10.835Z,3.43
2019-05-21T13:50:44.489Z,4.63
2019-05-21T13:53:32.756Z,4.77
2019-05-21T13:56:01.404Z,9.13
2019-05-21T13:58:31.618Z,13.20
2019-05-21T14:01:02.693Z,14.60
2019-05-21T14:03:31.364Z,8.78
2019-05-21T14:06:00.071Z,9.53
2019-05-21T14:08:28.839Z,15.03
2019-05-21T14:10:57.645Z,7.40
2019-05-21T14:13:26.391Z,4.83
2019-05-21T14:15:57.940Z,3.33
2019-05-21T14:18:30.471Z,3.80
2019-05-21T14:21:03.029Z,4.50
2019-05-21T14:23:33.788Z,4.60
2019-05-21T14:26:02.602Z,3.60
2019-05-21T14:28:34.314Z,4.73
2019-05-21T14:31:01.579Z,3.70
2019-05-21T14:33:30.180Z,3.87
2019-05-21T14:35:58.810Z,4.03
2019-05-21T14:38:27.486Z,4.47
2019-05-21T14:40:56.191Z,5.37
2019-05-21T14:43:25.062Z,5.40
2019-05-21T14:45:53.699Z,3.27
2019-05-21T14:48:41.713Z,4.97
2019-05-21T14:51:13.406Z,8.63
2019-05-21T14:53:40.682Z,5.00
2019-05-21T14:56:28.653Z,3.00
2019-05-21T14:59:16.657Z,3.07
2019-05-21T15:01:47.013Z,3.33
2019-05-21T15:04:15.704Z,3.60
2019-05-21T15:06:44.522Z,6.63
2019-05-21T15:09:13.269Z,4.37
2019-05-21T15:11:41.858Z,4.20
2019-05-21T15:14:10.524Z,4.80
2019-05-21T15:16:39.082Z,6.77
2019-05-21T15:19:07.760Z,3.83
2019-05-21T15:21:39.501Z,5.10
2019-05-21T15:24:08.394Z,4.07
2019-05-21T15:26:37.145Z,4.63
2019-05-21T15:29:06.026Z,3.73
2019-05-21T15:31:34.862Z,5.80
2019-05-21T15:34:03.674Z,4.73
2019-05-21T15:36:32.372Z,5.63
2019-05-21T15:39:01.900Z,4.63
2019-05-21T15:41:30.824Z,5.97
2019-05-21T15:43:59.576Z,5.23
2019-05-21T15:46:28.335Z,4.20
2019-05-21T15:48:56.956Z,4.43
2019-05-21T15:51:25.585Z,4.43
2019-05-21T15:53:54.365Z,5.00
2019-05-21T15:56:22.931Z,4.40
2019-05-21T15:58:52.439Z,5.37
2019-05-21T16:01:22.569Z,6.30
2019-05-21T16:03:51.331Z,4.03
2019-05-21T16:06:20.024Z,5.57
2019-05-21T16:08:48.765Z,4.83
2019-05-21T16:11:27.880Z,4.93
2019-05-21T16:13:47.771Z,5.20
2019-05-21T16:16:16.382Z,4.87
2019-05-21T16:18:45.013Z,7.50
2019-05-21T16:21:13.713Z,7.13
2019-05-21T16:23:42.352Z,7.33
2019-05-21T16:26:11.265Z,6.53
2019-05-21T16:28:41.437Z,6.57
2019-05-21T16:31:10.124Z,5.17
2019-05-21T16:33:40.302Z,6.13
2019-05-21T16:36:09.051Z,6.03
2019-05-21T16:38:39.224Z,5.23
2019-05-21T16:41:09.371Z,5.43
2019-05-21T16:43:38.074Z,6.27
2019-05-21T16:46:10.173Z,6.23
2019-05-21T16:48:56.614Z,8.03
2019-05-21T16:51:25.372Z,7.80
2019-05-21T16:53:54.061Z,6.87
2019-05-21T16:56:42.076Z,6.07
2019-05-21T16:59:10.778Z,7.27
2019-05-21T17:01:39.458Z,6.43
2019-05-21T17:04:08.670Z,6.57
2019-05-21T17:06:37.307Z,7.90
2019-05-21T17:09:08.185Z,8.77
2019-05-21T17:11:36.916Z,7.67
2019-05-21T17:14:24.883Z,6.50
2019-05-21T17:16:53.489Z,7.03
2019-05-21T17:19:22.121Z,6.77
2019-05-21T17:21:50.851Z,8.67
2019-05-21T17:24:19.508Z,6.40
2019-05-21T17:26:48.125Z,9.53
2019-05-21T17:29:16.836Z,9.47
2019-05-21T17:31:45.593Z,8.57
2019-05-21T17:34:14.294Z,9.30
2019-05-21T17:36:42.920Z,8.10
2019-05-21T17:39:11.622Z,7.20
2019-05-21T17:41:40.429Z,7.03
2019-05-21T17:44:09.067Z,10.13
2019-05-21T17:46:57.097Z,8.30
2019-05-21T17:49:45.064Z,7.27
2019-05-21T17:52:13.764Z,9.07
2019-05-21T17:54:55.502Z,7.83
2019-05-21T17:57:12.980Z,6.93
2019-05-21T17:59:41.528Z,8.77
2019-05-21T18:02:11.892Z,9.03
2019-05-21T18:04:40.692Z,7.90
2019-05-21T18:07:10.540Z,8.07
2019-05-21T18:09:40.006Z,9.53
2019-05-21T18:12:10.037Z,7.47
2019-05-21T18:14:38.841Z,7.00
2019-05-21T18:17:09.442Z,7.50
2019-05-21T18:19:38.241Z,10.10
2019-05-21T18:22:08.573Z,9.57
2019-05-21T18:24:37.283Z,10.23
2019-05-21T18:27:06.013Z,8.90
2019-05-21T18:29:34.630Z,8.47
2019-05-21T18:32:03.260Z,8.33
2019-05-21T18:34:31.957Z,9.33
2019-05-21T18:37:00.687Z,9.60
2019-05-21T18:39:29.775Z,9.63
2019-05-21T18:42:22.338Z,12.10
2019-05-21T18:44:48.032Z,12.17
2019-05-21T18:47:16.842Z,12.43
2019-05-21T18:49:45.855Z,11.10
2019-05-21T18:52:14.412Z,12.13
2019-05-21T18:55:02.460Z,13.07
2019-05-21T18:57:32.746Z,13.23
2019-05-21T19:00:01.393Z,11.70
2019-05-21T19:02:30.080Z,13.83
2019-05-21T19:04:58.892Z,11.70
2019-05-21T19:07:27.514Z,18.87
2019-05-21T19:09:56.179Z,13.33
2019-05-21T19:12:37.588Z,14.70
2019-05-21T19:14:55.745Z,19.73
2019-05-21T19:17:35.219Z,16.53
2019-05-21T19:19:54.797Z,22.80
2019-05-21T19:22:27.297Z,14.90
2019-05-21T19:24:54.053Z,17.07
2019-05-21T19:27:22.710Z,19.07
2019-05-21T19:29:51.403Z,13.33
2019-05-21T19:32:42.479Z,17.60
2019-05-21T19:35:11.890Z,13.27
2019-05-21T19:37:40.556Z,17.50
2019-05-21T19:40:10.224Z,15.90
2019-05-21T19:42:53.880Z,18.77
2019-05-21T19:45:09.454Z,17.13
2019-05-21T19:47:38.226Z,19.37
2019-05-21T19:50:10.989Z,19.73
2019-05-21T19:52:39.648Z,19.43
2019-05-21T19:55:08.593Z,19.40
2019-05-21T19:57:38.376Z,18.47
2019-05-21T20:00:09.100Z,18.00
2019-05-21T20:02:37.810Z,18.97
2019-05-21T20:05:07.928Z,17.90
2019-05-21T20:07:36.796Z,20.53
2019-05-21T20:10:07.236Z,20.23
2019-05-21T20:12:48.434Z,19.70
2019-05-21T20:15:17.397Z,17.93
2019-05-21T20:17:50.833Z,21.50
2019-05-21T20:20:20.721Z,20.73
2019-05-21T20:22:50.988Z,24.53
2019-05-21T20:25:20.352Z,21.37
2019-05-21T20:27:48.988Z,22.53
2019-05-21T20:30:19.633Z,18.73
2019-05-21T20:32:49.317Z,22.40
2019-05-21T20:35:18.634Z,20.87
2019-05-21T20:37:48.979Z,19.07
2019-05-21T20:40:18.603Z,25.20
2019-05-21T20:42:47.526Z,23.73
2019-05-21T20:45:18.017Z,22.27
2019-05-21T20:50:38.350Z,24.97
2019-05-21T20:55:57.198Z,20.70
2019-05-21T20:58:27.365Z,25.73
2019-05-21T21:00:59.164Z,29.30
2019-05-21T21:03:28.273Z,27.33
2019-05-21T21:05:57.231Z,26.70
2019-05-21T21:08:50.864Z,28.00
2019-05-21T21:14:15.377Z,29.83
2019-05-21T21:16:32.237Z,28.17
2019-05-21T21:19:00.892Z,26.90
2019-05-21T21:21:29.649Z,29.47
2019-05-21T21:23:58.314Z,26.33
2019-05-21T21:26:27.033Z,26.27
2019-05-21T21:28:55.871Z,26.70
2019-05-21T21:31:24.820Z,27.33
2019-05-21T21:33:53.393Z,31.83
2019-05-21T21:36:22.069Z,30.33
2019-05-21T21:38:50.804Z,35.80
2019-05-21T21:41:20.125Z,34.37
2019-05-21T21:43:49.332Z,31.63
2019-05-21T21:46:18.081Z,33.50
2019-05-21T21:48:47.081Z,34.43
2019-05-21T21:51:15.692Z,30.37
2019-05-21T21:53:44.399Z,33.37
2019-05-21T21:56:13.095Z,32.47
2019-05-21T21:58:41.797Z,29.73
2019-05-21T22:01:27.223Z,34.33
2019-05-21T22:03:58.460Z,30.23
2019-05-21T22:06:30.125Z,27.60
2019-05-21T22:08:59.754Z,28.70
2019-05-21T22:11:29.061Z,35.13
2019-05-21T22:13:57.973Z,31.60
2019-05-21T22:16:26.653Z,32.73
2019-05-21T22:18:55.217Z,31.80
2019-05-21T22:21:24.170Z,35.93
2019-05-21T22:23:53.173Z,31.03
2019-05-21T22:26:22.308Z,33.30
2019-05-21T22:28:51.450Z,29.87
2019-05-21T22:31:20.284Z,29.73
2019-05-21T22:33:49.129Z,29.13
2019-05-21T22:36:17.842Z,29.90
2019-05-21T22:38:46.586Z,28.20
2019-05-21T22:41:15.292Z,30.97
2019-05-21T22:43:44.540Z,31.03
2019-05-21T22:46:13.248Z,31.77
2019-05-21T22:48:41.938Z,35.27
2019-05-21T22:51:10.845Z,34.57
2019-05-21T22:53:39.601Z,31.93
2019-05-21T22:56:08.305Z,33.87
2019-05-21T22:58:38.709Z,35.87
2019-05-21T23:01:09.084Z,31.37
2019-05-21T23:03:37.719Z,33.20
2019-05-21T23:06:06.396Z,31.17
2019-05-21T23:08:35.333Z,30.17
2019-05-21T23:11:04.014Z,34.87
2019-05-21T23:13:32.722Z,30.67
2019-05-21T23:16:01.850Z,34.40
2019-05-21T23:18:49.828Z,32.00
2019-05-21T23:21:19.525Z,32.37
2019-05-21T23:23:50.024Z,30.00
2019-05-21T23:26:20.162Z,30.10
2019-05-21T23:28:49.217Z,29.90
2019-05-21T23:31:19.085Z,29.90
2019-05-21T23:33:49.967Z,32.63
2019-05-21T23:36:18.786Z,30.27
2019-05-21T23:39:08.628Z,30.43
2019-05-21T23:41:37.977Z,29.80
2019-05-21T23:44:08.922Z,30.40
2019-05-21T23:46:37.534Z,32.73
2019-05-21T23:49:07.712Z,29.13
2019-05-21T23:51:36.389Z,30.60
2019-05-21T23:54:06.066Z,29.97
2019-05-21T23:56:35.216Z,32.50
2019-05-21T23:59:05.597Z,35.30
